createdAt,value
2019-03-01T00:01:34.759Z,9.10
2019-03-01T00:04:18.230Z,9.10
2019-03-01T00:07:17.750Z,9.10
2019-03-01T00:10:12.187Z,9.10
2019-03-01T00:13:21.845Z,9.00
2019-03-01T00:16:43.218Z,9.00
2019-03-01T00:19:54.149Z,9.00
2019-03-01T00:23:01.952Z,9.00
2019-03-01T00:26:01.969Z,8.90
2019-03-01T00:29:05.963Z,8.90
2019-03-01T00:31:45.136Z,8.90
2019-03-01T00:34:49.381Z,8.90
2019-03-01T00:38:01.445Z,8.90
2019-03-01T00:40:49.397Z,8.80
2019-03-01T00:43:35.911Z,8.80
2019-03-01T00:46:03.301Z,8.80
2019-03-01T00:48:30.472Z,8.80
2019-03-01T00:50:58.228Z,8.80
2019-03-01T00:53:25.469Z,8.80
2019-03-01T00:55:52.867Z,8.80
2019-03-01T00:58:20.244Z,8.70
2019-03-01T01:00:48.396Z,8.70
2019-03-01T01:03:15.649Z,8.70
2019-03-01T01:05:43.079Z,8.70
2019-03-01T01:08:10.434Z,8.70
2019-03-01T01:10:38.062Z,8.70
2019-03-01T01:13:05.419Z,8.70
2019-03-01T01:15:32.719Z,8.60
2019-03-01T01:18:00.203Z,8.60
2019-03-01T01:20:27.315Z,8.60
2019-03-01T01:22:54.689Z,8.60
2019-03-01T01:25:22.526Z,8.60
2019-03-01T01:27:50.598Z,8.60
2019-03-01T01:30:18.026Z,8.50
2019-03-01T01:32:45.161Z,8.50
2019-03-01T01:35:12.388Z,8.50
2019-03-01T01:37:39.968Z,8.50
2019-03-01T01:40:07.690Z,8.50
2019-03-01T01:42:34.903Z,8.50
2019-03-01T01:45:02.047Z,8.50
2019-03-01T01:47:29.272Z,8.50
2019-03-01T01:49:56.678Z,8.40
2019-03-01T01:52:23.941Z,8.40
2019-03-01T01:54:51.150Z,8.40
2019-03-01T01:57:18.502Z,8.40
2019-03-01T01:59:45.739Z,8.40
2019-03-01T02:02:13.144Z,8.40
2019-03-01T02:04:40.542Z,8.40
2019-03-01T02:07:07.920Z,8.40
2019-03-01T02:09:35.450Z,8.40
2019-03-01T02:12:03.066Z,8.40
2019-03-01T02:14:30.250Z,8.40
2019-03-01T02:16:57.904Z,8.40
2019-03-01T02:19:25.150Z,8.40
2019-03-01T02:21:52.481Z,8.40
2019-03-01T02:24:19.699Z,8.40
2019-03-01T02:26:47.035Z,8.40
2019-03-01T02:29:14.319Z,8.40
2019-03-01T02:31:56.940Z,8.40
2019-03-01T02:34:24.303Z,8.40
2019-03-01T02:36:51.603Z,8.40
2019-03-01T02:39:18.757Z,8.40
2019-03-01T02:41:46.143Z,8.40
2019-03-01T02:44:14.472Z,8.40
2019-03-01T02:46:41.848Z,8.40
2019-03-01T02:49:09.063Z,8.40
2019-03-01T02:51:36.602Z,8.40
2019-03-01T02:54:03.964Z,8.40
2019-03-01T02:56:31.270Z,8.40
2019-03-01T02:58:58.498Z,8.40
2019-03-01T03:01:26.126Z,8.40
2019-03-01T03:03:53.522Z,8.40
2019-03-01T03:06:43.267Z,8.40
2019-03-01T03:09:11.903Z,8.40
2019-03-01T03:11:39.381Z,8.40
2019-03-01T03:14:08.669Z,8.40
2019-03-01T03:16:36.235Z,8.40
2019-03-01T03:19:03.546Z,8.40
2019-03-01T03:21:30.903Z,8.40
2019-03-01T03:23:58.269Z,8.40
2019-03-01T03:26:25.553Z,8.30
2019-03-01T03:28:53.101Z,8.30
2019-03-01T03:31:20.374Z,8.30
2019-03-01T03:33:47.575Z,8.30
2019-03-01T03:36:14.824Z,8.30
2019-03-01T03:38:41.995Z,8.30
2019-03-01T03:41:09.250Z,8.30
2019-03-01T03:43:36.486Z,8.30
2019-03-01T03:46:03.803Z,8.30
2019-03-01T03:48:31.151Z,8.30
2019-03-01T03:50:58.521Z,8.30
2019-03-01T03:53:25.774Z,8.20
2019-03-01T03:55:53.146Z,8.20
2019-03-01T03:58:20.514Z,8.20
2019-03-01T04:00:47.952Z,8.20
2019-03-01T04:03:15.212Z,8.20
2019-03-01T04:05:42.608Z,8.20
2019-03-01T04:08:09.994Z,8.20
2019-03-01T04:10:37.453Z,8.20
2019-03-01T04:13:05.740Z,8.20
2019-03-01T04:15:33.160Z,8.20
2019-03-01T04:18:00.272Z,8.10
2019-03-01T04:20:27.611Z,8.10
2019-03-01T04:22:54.985Z,8.10
2019-03-01T04:25:22.372Z,8.10
2019-03-01T04:27:49.593Z,8.10
2019-03-01T04:30:16.864Z,8.10
2019-03-01T04:32:44.313Z,8.10
2019-03-01T04:35:12.111Z,8.00
2019-03-01T04:37:40.442Z,8.10
2019-03-01T04:40:09.163Z,8.00
2019-03-01T04:42:36.598Z,8.00
2019-03-01T04:45:04.201Z,8.00
2019-03-01T04:47:31.557Z,8.00
2019-03-01T04:49:58.684Z,8.00
2019-03-01T04:52:35.824Z,8.00
2019-03-01T04:55:04.947Z,8.00
2019-03-01T04:57:32.304Z,7.90
2019-03-01T04:59:59.551Z,7.90
2019-03-01T05:02:26.886Z,7.90
2019-03-01T05:04:54.099Z,7.90
2019-03-01T05:07:21.743Z,7.90
2019-03-01T05:09:49.151Z,7.90
2019-03-01T05:12:16.525Z,7.90
2019-03-01T05:14:43.898Z,7.90
2019-03-01T05:17:11.160Z,7.90
2019-03-01T05:19:38.528Z,7.90
2019-03-01T05:22:05.730Z,7.90
2019-03-01T05:24:32.931Z,8.00
2019-03-01T05:27:00.189Z,8.00
2019-03-01T05:29:27.317Z,8.00
2019-03-01T05:31:54.448Z,8.00
2019-03-01T05:34:21.682Z,8.00
2019-03-01T05:36:48.822Z,8.00
2019-03-01T05:39:16.150Z,8.00
2019-03-01T05:41:43.440Z,8.00
2019-03-01T05:44:10.854Z,8.00
2019-03-01T05:46:37.958Z,8.00
2019-03-01T05:49:05.196Z,8.00
2019-03-01T05:51:33.556Z,8.00
2019-03-01T05:54:00.981Z,8.00
2019-03-01T05:56:28.397Z,8.00
2019-03-01T05:59:16.653Z,8.00
2019-03-01T06:02:25.819Z,8.00
2019-03-01T06:05:02.525Z,8.00
2019-03-01T06:08:20.595Z,8.00
2019-03-01T06:11:05.229Z,8.00
2019-03-01T06:14:02.796Z,8.00
2019-03-01T06:16:50.354Z,8.00
2019-03-01T06:19:45.250Z,8.00
2019-03-01T06:22:36.527Z,8.00
2019-03-01T06:25:42.807Z,8.00
2019-03-01T06:28:57.938Z,8.00
2019-03-01T06:32:03.191Z,8.00
2019-03-01T06:34:55.749Z,8.00
2019-03-01T06:38:19.498Z,7.90
2019-03-01T06:41:33.179Z,7.90
2019-03-01T06:45:00.893Z,7.90
2019-03-01T06:47:41.830Z,7.90
2019-03-01T06:50:15.484Z,7.90
2019-03-01T06:52:43.816Z,7.90
2019-03-01T06:55:43.255Z,8.00
2019-03-01T06:58:22.283Z,7.90
2019-03-01T07:00:53.252Z,8.00
2019-03-01T07:03:20.570Z,7.90
2019-03-01T07:05:47.970Z,7.90
2019-03-01T07:08:15.087Z,7.90
2019-03-01T07:10:42.489Z,7.90
2019-03-01T07:13:09.605Z,7.90
2019-03-01T07:15:37.011Z,7.90
2019-03-01T07:18:04.215Z,7.90
2019-03-01T07:20:31.441Z,7.90
2019-03-01T07:22:58.741Z,7.80
2019-03-01T07:25:25.892Z,7.80
2019-03-01T07:27:53.027Z,7.80
2019-03-01T07:30:20.435Z,7.80
2019-03-01T07:32:47.825Z,7.80
2019-03-01T07:35:15.911Z,7.80
2019-03-01T07:37:43.039Z,7.80
2019-03-01T07:40:10.913Z,7.80
2019-03-01T07:42:38.348Z,7.80
2019-03-01T07:45:06.779Z,7.80
2019-03-01T07:47:34.315Z,7.80
2019-03-01T07:50:01.867Z,7.80
2019-03-01T07:52:29.178Z,7.80
2019-03-01T07:54:56.530Z,7.80
2019-03-01T07:57:23.913Z,7.80
2019-03-01T07:59:51.309Z,7.80
2019-03-01T08:02:18.676Z,7.80
2019-03-01T08:04:45.929Z,7.70
2019-03-01T08:07:13.301Z,7.80
2019-03-01T08:09:41.298Z,7.80
2019-03-01T08:12:09.896Z,7.80
2019-03-01T08:14:37.120Z,7.80
2019-03-01T08:17:04.622Z,7.80
2019-03-01T08:19:32.144Z,7.80
2019-03-01T08:21:59.283Z,7.80
2019-03-01T08:24:26.541Z,7.90
2019-03-01T08:26:53.770Z,7.80
2019-03-01T08:29:21.100Z,7.90
2019-03-01T08:31:48.216Z,7.90
2019-03-01T08:34:17.755Z,7.90
2019-03-01T08:36:44.766Z,7.90
2019-03-01T08:39:11.903Z,7.90
2019-03-01T08:41:39.202Z,7.90
2019-03-01T08:44:06.481Z,7.90
2019-03-01T08:46:33.845Z,7.90
2019-03-01T08:49:01.644Z,7.90
2019-03-01T08:51:29.143Z,7.90
2019-03-01T08:53:57.351Z,7.90
2019-03-01T08:56:26.371Z,8.00
2019-03-01T08:58:53.669Z,8.00
2019-03-01T09:01:21.003Z,8.00
2019-03-01T09:03:52.906Z,8.10
2019-03-01T09:06:20.116Z,8.10
2019-03-01T09:08:47.291Z,8.20
2019-03-01T09:11:14.538Z,8.20
2019-03-01T09:13:41.970Z,8.20
2019-03-01T09:16:09.207Z,8.20
2019-03-01T09:18:36.453Z,8.20
2019-03-01T09:21:05.839Z,8.20
2019-03-01T09:23:32.869Z,8.20
2019-03-01T09:26:00.224Z,8.30
2019-03-01T09:28:27.457Z,8.30
2019-03-01T09:30:55.025Z,8.30
2019-03-01T09:33:22.952Z,8.30
2019-03-01T09:36:17.854Z,8.30
2019-03-01T09:38:45.307Z,8.40
2019-03-01T09:41:12.758Z,8.40
2019-03-01T09:43:41.065Z,8.40
2019-03-01T09:46:08.358Z,8.40
2019-03-01T09:48:36.064Z,8.40
2019-03-01T09:51:03.278Z,8.40
2019-03-01T09:53:33.984Z,8.40
2019-03-01T09:56:00.227Z,8.40
2019-03-01T09:58:28.006Z,8.40
2019-03-01T10:00:59.410Z,8.40
2019-03-01T10:03:26.800Z,8.40
2019-03-01T10:05:54.177Z,8.40
2019-03-01T10:08:21.570Z,8.40
2019-03-01T10:10:49.259Z,8.50
2019-03-01T10:13:16.609Z,8.50
2019-03-01T10:15:44.070Z,8.50
2019-03-01T10:18:11.304Z,8.50
2019-03-01T10:20:39.999Z,8.50
2019-03-01T10:23:07.126Z,8.40
2019-03-01T10:25:34.441Z,8.40
2019-03-01T10:28:01.786Z,8.40
2019-03-01T10:30:29.029Z,8.40
2019-03-01T10:32:56.719Z,8.50
2019-03-01T10:35:24.112Z,8.50
2019-03-01T10:37:53.018Z,8.50
2019-03-01T10:40:21.206Z,8.50
2019-03-01T10:42:48.686Z,8.50
2019-03-01T10:45:18.339Z,8.50
2019-03-01T10:47:45.618Z,8.50
2019-03-01T10:50:13.552Z,8.50
2019-03-01T10:52:40.911Z,8.40
2019-03-01T10:55:10.310Z,8.50
2019-03-01T10:57:38.633Z,8.50
2019-03-01T11:00:14.784Z,8.40
2019-03-01T11:02:42.144Z,8.50
2019-03-01T11:05:09.449Z,8.50
2019-03-01T11:07:36.775Z,8.40
2019-03-01T11:10:05.486Z,8.40
2019-03-01T11:12:32.764Z,8.40
2019-03-01T11:14:59.741Z,8.30
2019-03-01T11:17:26.833Z,8.30
2019-03-01T11:19:54.172Z,8.30
2019-03-01T11:22:21.459Z,8.30
2019-03-01T11:24:48.939Z,8.30
2019-03-01T11:27:16.220Z,8.20
2019-03-01T11:29:43.799Z,8.30
2019-03-01T11:32:12.244Z,8.30
2019-03-01T11:34:39.461Z,8.40
2019-03-01T11:37:06.635Z,8.40
2019-03-01T11:39:34.113Z,8.40
2019-03-01T11:42:01.348Z,8.50
2019-03-01T11:44:28.577Z,8.50
2019-03-01T11:46:56.249Z,8.50
2019-03-01T11:49:23.367Z,8.50
2019-03-01T11:51:50.747Z,8.60
2019-03-01T11:54:18.241Z,8.60
2019-03-01T11:56:45.508Z,8.60
2019-03-01T11:59:12.612Z,8.60
2019-03-01T12:01:39.984Z,8.60
2019-03-01T12:04:07.196Z,8.70
2019-03-01T12:06:34.578Z,8.60
2019-03-01T12:09:01.920Z,8.60
2019-03-01T12:11:31.064Z,8.60
2019-03-01T12:13:58.162Z,8.60
2019-03-01T12:16:25.367Z,8.60
2019-03-01T12:18:52.622Z,8.60
2019-03-01T12:21:19.963Z,8.60
2019-03-01T12:23:47.359Z,8.60
2019-03-01T12:26:14.716Z,8.60
2019-03-01T12:28:41.995Z,8.60
2019-03-01T12:31:09.551Z,8.60
2019-03-01T12:33:37.122Z,8.60
2019-03-01T12:36:04.408Z,8.60
2019-03-01T12:38:31.684Z,8.60
2019-03-01T12:40:59.011Z,8.70
2019-03-01T12:43:26.258Z,8.60
2019-03-01T12:45:53.604Z,8.70
2019-03-01T12:48:21.423Z,8.70
2019-03-01T12:50:48.687Z,8.70
2019-03-01T12:53:15.984Z,8.70
2019-03-01T12:55:43.211Z,8.70
2019-03-01T12:58:19.197Z,8.70
2019-03-01T13:00:39.933Z,8.70
2019-03-01T13:03:09.033Z,8.60
2019-03-01T13:05:36.323Z,8.70
2019-03-01T13:08:03.673Z,8.60
2019-03-01T13:10:31.101Z,8.60
2019-03-01T13:12:58.747Z,8.70
2019-03-01T13:15:27.513Z,8.70
2019-03-01T13:17:54.864Z,8.60
2019-03-01T13:20:22.089Z,8.70
2019-03-01T13:22:49.566Z,8.70
2019-03-01T13:25:16.846Z,8.70
2019-03-01T13:27:44.410Z,8.70
2019-03-01T13:30:16.588Z,8.70
2019-03-01T13:32:44.004Z,8.70
2019-03-01T13:35:12.555Z,8.70
2019-03-01T13:37:40.271Z,8.80
2019-03-01T13:40:09.051Z,8.80
2019-03-01T13:42:36.714Z,8.80
2019-03-01T13:45:04.445Z,8.90
2019-03-01T13:47:32.038Z,9.00
2019-03-01T13:49:59.549Z,9.00
2019-03-01T13:52:29.932Z,9.00
2019-03-01T13:54:56.132Z,9.00
2019-03-01T13:57:23.485Z,9.00
2019-03-01T13:59:50.838Z,9.00
2019-03-01T14:02:18.042Z,9.10
2019-03-01T14:04:45.783Z,9.10
2019-03-01T14:07:13.146Z,9.10
2019-03-01T14:09:40.345Z,9.20
2019-03-01T14:12:07.710Z,9.20
2019-03-01T14:14:35.091Z,9.20
2019-03-01T14:17:02.449Z,9.10
2019-03-01T14:19:29.835Z,9.20
2019-03-01T14:21:57.074Z,9.20
2019-03-01T14:24:25.958Z,9.20
2019-03-01T14:26:54.029Z,9.30
2019-03-01T14:29:22.240Z,9.30
2019-03-01T14:31:49.630Z,9.30
2019-03-01T14:34:16.921Z,9.30
2019-03-01T14:36:44.172Z,9.30
2019-03-01T14:39:16.221Z,9.30
2019-03-01T14:41:43.454Z,9.30
2019-03-01T14:44:10.667Z,9.40
2019-03-01T14:46:37.914Z,9.30
2019-03-01T14:49:05.601Z,9.30
2019-03-01T14:51:33.063Z,9.40
2019-03-01T14:54:00.620Z,9.40
2019-03-01T14:56:34.709Z,9.40
2019-03-01T14:59:13.079Z,9.40
2019-03-01T15:02:05.084Z,9.40
2019-03-01T15:04:33.436Z,9.40
2019-03-01T15:07:00.806Z,9.30
2019-03-01T15:09:28.210Z,9.40
2019-03-01T15:11:55.642Z,9.40
2019-03-01T15:14:23.099Z,9.40
2019-03-01T15:16:50.633Z,9.40
2019-03-01T15:19:17.901Z,9.50
2019-03-01T15:21:45.145Z,9.60
2019-03-01T15:24:12.496Z,9.60
2019-03-01T15:26:40.341Z,9.60
2019-03-01T15:29:07.683Z,9.60
2019-03-01T15:31:35.057Z,9.60
2019-03-01T15:34:02.301Z,9.60
2019-03-01T15:36:29.541Z,9.60
2019-03-01T15:38:56.923Z,9.60
2019-03-01T15:41:24.423Z,9.50
2019-03-01T15:43:51.825Z,9.50
2019-03-01T15:46:19.214Z,9.50
2019-03-01T15:48:46.463Z,9.50
2019-03-01T15:51:14.112Z,9.50
2019-03-01T15:53:41.440Z,9.60
2019-03-01T15:56:08.733Z,9.60
2019-03-01T15:58:36.343Z,9.50
2019-03-01T16:01:11.789Z,9.40
2019-03-01T16:03:39.282Z,9.40
2019-03-01T16:06:10.243Z,9.40
2019-03-01T16:08:36.953Z,9.40
2019-03-01T16:11:04.947Z,9.40
2019-03-01T16:13:34.213Z,9.30
2019-03-01T16:16:01.452Z,9.30
2019-03-01T16:18:28.644Z,9.20
2019-03-01T16:20:56.176Z,9.20
2019-03-01T16:23:23.234Z,9.10
2019-03-01T16:25:53.172Z,9.10
2019-03-01T16:28:19.817Z,9.00
2019-03-01T16:30:49.708Z,8.80
2019-03-01T16:33:16.507Z,8.70
2019-03-01T16:35:43.770Z,8.70
2019-03-01T16:38:12.572Z,8.70
2019-03-01T16:40:39.686Z,8.70
2019-03-01T16:43:06.824Z,8.70
2019-03-01T16:45:36.222Z,8.60
2019-03-01T16:48:03.522Z,8.60
2019-03-01T16:50:30.897Z,8.60
2019-03-01T16:52:58.174Z,8.60
2019-03-01T16:55:27.805Z,8.60
2019-03-01T16:58:05.979Z,8.60
2019-03-01T17:00:24.930Z,8.60
2019-03-01T17:02:52.376Z,8.60
2019-03-01T17:05:19.735Z,8.60
2019-03-01T17:07:46.987Z,8.60
2019-03-01T17:10:15.544Z,8.50
2019-03-01T17:12:43.139Z,8.50
2019-03-01T17:15:14.665Z,8.50
2019-03-01T17:17:42.695Z,8.40
2019-03-01T17:20:09.957Z,8.40
2019-03-01T17:22:37.345Z,8.40
2019-03-01T17:25:05.049Z,8.40
2019-03-01T17:27:32.518Z,8.40
2019-03-01T17:29:59.967Z,8.40
2019-03-01T17:32:27.313Z,8.40
2019-03-01T17:34:55.116Z,8.30
2019-03-01T17:37:25.874Z,8.30
2019-03-01T17:39:53.179Z,8.30
2019-03-01T17:42:21.549Z,8.30
2019-03-01T17:44:49.064Z,8.20
2019-03-01T17:47:16.790Z,8.30
2019-03-01T17:49:44.037Z,8.20
2019-03-01T17:52:12.426Z,8.20
2019-03-01T17:54:39.709Z,8.10
2019-03-01T17:57:07.064Z,8.10
2019-03-01T17:59:34.570Z,8.10
2019-03-01T18:02:02.154Z,8.10
2019-03-01T18:04:29.888Z,8.20
2019-03-01T18:06:57.061Z,8.10
2019-03-01T18:09:24.486Z,8.20
2019-03-01T18:11:52.231Z,8.10
2019-03-01T18:14:19.549Z,8.00
2019-03-01T18:16:47.247Z,8.00
2019-03-01T18:19:14.513Z,8.00
2019-03-01T18:21:46.397Z,8.00
2019-03-01T18:24:14.382Z,8.00
2019-03-01T18:26:42.372Z,8.00
2019-03-01T18:29:09.517Z,8.00
2019-03-01T18:31:37.887Z,8.10
2019-03-01T18:34:05.307Z,8.10
2019-03-01T18:36:32.621Z,8.00
2019-03-01T18:39:00.234Z,8.10
2019-03-01T18:41:29.451Z,8.00
2019-03-01T18:43:56.831Z,8.00
2019-03-01T18:46:24.230Z,8.00
2019-03-01T18:48:51.685Z,8.00
2019-03-01T18:51:19.189Z,8.00
2019-03-01T18:53:46.507Z,8.00
2019-03-01T18:56:13.763Z,8.00
2019-03-01T18:58:41.065Z,8.00
2019-03-01T19:01:10.952Z,7.90
2019-03-01T19:03:40.203Z,7.90
2019-03-01T19:06:08.474Z,7.90
2019-03-01T19:08:36.432Z,7.90
2019-03-01T19:11:04.272Z,7.90
2019-03-01T19:13:31.785Z,7.80
2019-03-01T19:16:00.261Z,7.80
2019-03-01T19:18:27.534Z,7.80
2019-03-01T19:20:54.832Z,7.80
2019-03-01T19:23:22.366Z,7.80
2019-03-01T19:25:49.760Z,7.70
2019-03-01T19:28:17.162Z,7.70
2019-03-01T19:30:45.860Z,7.80
2019-03-01T19:33:13.948Z,7.70
2019-03-01T19:35:41.463Z,7.70
2019-03-01T19:38:08.973Z,7.70
2019-03-01T19:40:36.523Z,7.70
2019-03-01T19:43:06.936Z,7.60
2019-03-01T19:45:33.128Z,7.60
2019-03-01T19:48:03.238Z,7.60
2019-03-01T19:50:31.157Z,7.70
2019-03-01T19:52:58.397Z,7.70
2019-03-01T19:55:25.796Z,7.60
2019-03-01T19:57:53.399Z,7.60
2019-03-01T20:00:22.056Z,7.60
2019-03-01T20:02:49.509Z,7.60
2019-03-01T20:05:19.040Z,7.60
2019-03-01T20:07:48.259Z,7.60
2019-03-01T20:10:16.062Z,7.70
2019-03-01T20:12:43.909Z,7.60
2019-03-01T20:15:14.114Z,7.60
2019-03-01T20:17:44.362Z,7.60
2019-03-01T20:20:11.778Z,7.60
2019-03-01T20:22:39.189Z,7.60
2019-03-01T20:25:08.569Z,7.60
2019-03-01T20:27:39.038Z,7.60
2019-03-01T20:30:08.875Z,7.60
2019-03-01T20:32:36.236Z,7.60
2019-03-01T20:35:05.250Z,7.60
2019-03-01T20:37:33.088Z,7.60
2019-03-01T20:40:00.576Z,7.50
2019-03-01T20:42:27.809Z,7.60
2019-03-01T20:44:55.226Z,7.60
2019-03-01T20:47:23.075Z,7.50
2019-03-01T20:49:50.470Z,7.50
2019-03-01T20:52:18.126Z,7.60
2019-03-01T20:54:45.359Z,7.50
2019-03-01T20:57:14.994Z,7.60
2019-03-01T20:59:42.248Z,7.50
2019-03-01T21:02:12.769Z,7.50
2019-03-01T21:04:41.536Z,7.50
2019-03-01T21:07:12.401Z,7.50
2019-03-01T21:09:40.517Z,7.50
2019-03-01T21:12:07.906Z,7.50
2019-03-01T21:14:35.280Z,7.50
2019-03-01T21:17:03.367Z,7.50
2019-03-01T21:19:30.761Z,7.50
2019-03-01T21:21:58.282Z,7.50
2019-03-01T21:24:26.731Z,7.50
2019-03-01T21:26:55.328Z,7.50
2019-03-01T21:29:22.618Z,7.50
2019-03-01T21:31:50.494Z,7.50
2019-03-01T21:34:17.632Z,7.50
2019-03-01T21:36:45.005Z,7.50
2019-03-01T21:39:12.230Z,7.50
2019-03-01T21:41:41.600Z,7.50
2019-03-01T21:44:10.628Z,7.50
2019-03-01T21:46:37.783Z,7.50
2019-03-01T21:49:05.153Z,7.40
2019-03-01T21:51:34.818Z,7.40
2019-03-01T21:54:02.079Z,7.40
2019-03-01T21:56:29.985Z,7.40
2019-03-01T21:58:57.539Z,7.40
2019-03-01T22:01:24.955Z,7.40
2019-03-01T22:03:52.225Z,7.40
2019-03-01T22:06:20.647Z,7.40
2019-03-01T22:08:49.723Z,7.50
2019-03-01T22:11:20.852Z,7.50
2019-03-01T22:13:48.252Z,7.40
2019-03-01T22:16:15.473Z,7.40
2019-03-01T22:18:43.139Z,7.40
2019-03-01T22:21:10.481Z,7.40
2019-03-01T22:23:37.558Z,7.40
2019-03-01T22:26:04.975Z,7.40
2019-03-01T22:28:36.214Z,7.40
2019-03-01T22:31:02.474Z,7.40
2019-03-01T22:33:30.153Z,7.40
2019-03-01T22:35:57.551Z,7.40
2019-03-01T22:38:25.088Z,7.40
2019-03-01T22:40:54.218Z,7.30
2019-03-01T22:43:22.536Z,7.40
2019-03-01T22:45:50.573Z,7.30
2019-03-01T22:48:17.953Z,7.30
2019-03-01T22:50:45.367Z,7.40
2019-03-01T22:53:12.790Z,7.30
2019-03-01T22:55:40.193Z,7.30
2019-03-01T22:58:07.501Z,7.30
2019-03-01T23:01:12.246Z,7.30
2019-03-01T23:03:41.235Z,7.30
2019-03-01T23:06:11.678Z,7.30
2019-03-01T23:08:37.660Z,7.30
2019-03-01T23:11:05.970Z,7.30
2019-03-01T23:13:33.162Z,7.30
2019-03-01T23:16:00.615Z,7.30
2019-03-01T23:18:28.032Z,7.30
2019-03-01T23:20:57.688Z,7.30
2019-03-01T23:23:24.819Z,7.30
2019-03-01T23:25:52.603Z,7.30
2019-03-01T23:28:19.972Z,7.30
2019-03-01T23:30:47.481Z,7.30
2019-03-01T23:33:16.205Z,7.30
2019-03-01T23:35:43.371Z,7.30
2019-03-01T23:38:11.550Z,7.30
2019-03-01T23:40:40.089Z,7.30
2019-03-01T23:43:07.491Z,7.30
2019-03-01T23:45:34.734Z,7.30
2019-03-01T23:48:02.098Z,7.30
2019-03-01T23:50:31.536Z,7.30
2019-03-01T23:53:00.083Z,7.30
2019-03-01T23:55:27.474Z,7.20
2019-03-01T23:57:59.264Z,7.20
